Time;durP1;ratioP1;P1;durP2;ratioP2;P2;SDS_P1;SDS_P2;PMS_P1;PMS_P2;Temp;Humidity;BMP_temperature;BMP_pressure;BME280_temperature;BME280_humidity;BME280_pressure;Samples;Min_cycle;Max_cycle;Signal;HPM_P1;HPM_P2
2021/01/20 00:00:33;;;;;;;5.80;4.00;;;;;;;2.96;100.00;97445.04;3638238;80;43487;-17
2021/01/20 00:05:39;;;;;;;6.97;4.20;;;;;;;2.89;100.00;97441.22;3652018;81;44091;-17
2021/01/20 00:10:46;;;;;;;6.20;3.60;;;;;;;2.86;100.00;97450.33;3629479;81;44095;-17
2021/01/20 00:15:53;;;;;;;5.73;4.07;;;;;;;2.81;100.00;97463.21;3619522;81;43318;-17
2021/01/20 00:20:59;;;;;;;5.70;3.93;;;;;;;2.82;100.00;97464.04;3617244;81;44748;-17
2021/01/20 00:26:04;;;;;;;5.63;4.00;;;;;;;2.76;100.00;97464.92;3652129;81;44027;-17
2021/01/20 00:31:11;;;;;;;4.63;3.80;;;;;;;2.73;100.00;97461.70;3630812;80;44464;-17
2021/01/20 00:36:17;;;;;;;6.10;4.10;;;;;;;2.78;100.00;97451.00;3651749;80;44030;-17
2021/01/20 00:41:23;;;;;;;5.73;4.13;;;;;;;2.76;100.00;97460.94;3650609;81;43382;-17
2021/01/20 00:46:28;;;;;;;5.87;3.80;;;;;;;2.82;100.00;97457.39;3644850;81;44490;-17
2021/01/20 00:51:35;;;;;;;5.93;3.63;;;;;;;2.82;100.00;97448.94;3594656;81;43415;-17
2021/01/20 00:56:41;;;;;;;5.43;3.90;;;;;;;2.81;100.00;97443.27;3630671;81;44079;-17
2021/01/20 01:01:47;;;;;;;6.47;4.40;;;;;;;2.78;100.00;97440.87;3631498;81;43682;-17
2021/01/20 01:06:54;;;;;;;5.57;3.87;;;;;;;2.80;100.00;97443.38;3651431;80;26880;-17
2021/01/20 01:12:00;;;;;;;6.90;3.97;;;;;;;2.72;100.00;97441.40;3639445;81;44429;-17
2021/01/20 01:17:07;;;;;;;3.83;3.20;;;;;;;2.71;100.00;97456.53;3633073;81;43957;-17
2021/01/20 01:22:21;;;;;;;6.17;3.20;;;;;;;2.69;100.00;97453.16;3649499;81;26836;-17
2021/01/20 01:27:28;;;;;;;4.63;2.90;;;;;;;2.64;100.00;97438.58;3633358;81;44028;-18
2021/01/20 01:32:36;;;;;;;4.67;2.97;;;;;;;2.65;100.00;97446.92;3635012;81;27361;-17
2021/01/20 01:37:43;;;;;;;4.47;2.90;;;;;;;2.56;100.00;97441.91;3655784;79;26731;-17
2021/01/20 01:42:52;;;;;;;3.93;2.70;;;;;;;2.53;100.00;97438.22;3652624;80;26372;-17
2021/01/20 01:47:58;;;;;;;5.33;2.40;;;;;;;2.56;100.00;97436.12;3703008;80;43959;-17
2021/01/20 01:53:04;;;;;;;3.43;2.33;;;;;;;2.61;100.00;97433.05;3653247;80;44464;-17
2021/01/20 01:58:14;;;;;;;2.70;2.20;;;;;;;2.77;100.00;97428.05;3676885;80;26358;-17
2021/01/20 02:03:21;;;;;;;3.73;2.10;;;;;;;2.85;100.00;97421.22;3650135;80;26415;-16
2021/01/20 02:08:30;;;;;;;2.93;2.03;;;;;;;2.84;100.00;97416.37;3642326;80;43026;-17
2021/01/20 02:13:42;;;;;;;2.30;1.83;;;;;;;2.73;100.00;97412.02;3761006;79;26332;-17
2021/01/20 02:19:09;;;;;;;3.20;2.00;;;;;;;2.69;100.00;97403.13;3680143;79;26888;-17
2021/01/20 02:24:18;;;;;;;4.17;1.80;;;;;;;2.60;100.00;97402.95;3703049;80;42583;-17
2021/01/20 02:29:37;;;;;;;2.20;1.70;;;;;;;2.48;100.00;97401.87;3694850;80;27022;-17
2021/01/20 02:34:47;;;;;;;2.23;1.40;;;;;;;2.46;100.00;97407.34;3649338;80;27641;-17
2021/01/20 02:39:54;;;;;;;2.73;1.60;;;;;;;2.46;100.00;97408.17;3679386;80;43940;-17
2021/01/20 02:45:06;;;;;;;3.93;1.60;;;;;;;2.45;100.00;97409.14;3742351;79;27341;-17
2021/01/20 02:50:20;;;;;;;2.10;1.37;;;;;;;2.35;100.00;97408.27;3670483;79;26378;-17
2021/01/20 02:55:28;;;;;;;2.43;1.47;;;;;;;2.39;100.00;97408.37;3703217;80;44038;-17
2021/01/20 03:00:50;;;;;;;3.63;1.40;;;;;;;2.39;100.00;97407.51;3615808;80;26468;-17
2021/01/20 03:05:56;;;;;;;2.13;1.50;;;;;;;2.50;100.00;97409.23;3645764;80;44139;-17
2021/01/20 03:11:05;;;;;;;2.13;1.60;;;;;;;2.62;100.00;97397.52;3677444;80;43069;-16
2021/01/20 03:16:10;;;;;;;2.30;1.50;;;;;;;2.59;100.00;97397.28;3711408;79;43227;-17
2021/01/20 03:21:15;;;;;;;1.93;1.50;;;;;;;2.55;100.00;97385.25;3671589;80;43038;-17
2021/01/20 03:26:20;;;;;;;3.67;1.60;;;;;;;2.56;100.00;97378.10;3703712;80;44081;-17
2021/01/20 03:31:25;;;;;;;1.97;1.57;;;;;;;2.55;100.00;97369.77;3680482;80;43048;-17
2021/01/20 03:36:31;;;;;;;1.80;1.33;;;;;;;2.53;100.00;97365.11;3651825;80;44629;-17
2021/01/20 03:41:36;;;;;;;2.70;1.40;;;;;;;2.48;100.00;97367.31;3669960;80;43307;-17
2021/01/20 03:46:41;;;;;;;3.73;1.50;;;;;;;2.56;100.00;97364.81;3662986;79;43499;-17
2021/01/20 03:51:46;;;;;;;1.80;1.47;;;;;;;2.61;100.00;97348.80;3668486;80;43850;-17
2021/01/20 03:56:55;;;;;;;2.50;1.63;;;;;;;2.68;100.00;97343.77;3643681;80;43055;-17
2021/01/20 04:02:01;;;;;;;2.57;1.50;;;;;;;2.78;100.00;97345.94;3680174;80;43373;-17
2021/01/20 04:07:07;;;;;;;2.57;1.67;;;;;;;2.97;100.00;97334.98;3702949;80;44373;-17
2021/01/20 04:12:12;;;;;;;2.00;1.70;;;;;;;2.99;100.00;97327.70;3662964;80;43421;-17
2021/01/20 04:17:18;;;;;;;2.60;1.93;;;;;;;2.96;100.00;97329.30;3659604;80;43719;-17
2021/01/20 04:22:24;;;;;;;2.60;2.07;;;;;;;2.96;100.00;97317.81;3677829;79;44443;-17
2021/01/20 04:27:30;;;;;;;3.13;2.07;;;;;;;2.95;100.00;97317.45;3662021;80;43284;-17
2021/01/20 04:32:36;;;;;;;2.83;2.17;;;;;;;2.98;100.00;97307.87;3700171;80;43715;-17
2021/01/20 04:37:42;;;;;;;2.77;2.20;;;;;;;2.97;100.00;97306.19;3675178;80;43734;-19
2021/01/20 04:42:49;;;;;;;2.57;2.20;;;;;;;2.96;100.00;97300.52;3688229;80;43729;-19
2021/01/20 04:47:56;;;;;;;3.10;2.10;;;;;;;2.89;100.00;97281.14;3702499;80;44694;-19
2021/01/20 04:53:04;;;;;;;3.70;2.40;;;;;;;2.96;100.00;97260.61;3728618;79;43681;-18
2021/01/20 04:58:18;;;;;;;2.73;2.13;;;;;;;3.09;100.00;97250.51;3702458;80;43717;-19
2021/01/20 05:03:25;;;;;;;3.60;2.27;;;;;;;3.18;100.00;97239.00;3700463;80;44035;-18
2021/01/20 05:08:31;;;;;;;2.57;2.10;;;;;;;3.21;100.00;97241.37;3702556;80;43694;-19
2021/01/20 05:13:37;;;;;;;3.80;2.57;;;;;;;3.28;100.00;97248.30;3646992;80;43288;-18
2021/01/20 05:18:49;;;;;;;3.23;2.30;;;;;;;3.34;100.00;97265.52;3653934;80;44038;-19
2021/01/20 05:23:55;;;;;;;3.23;2.10;;;;;;;3.42;100.00;97273.61;3672688;79;44067;-18
2021/01/20 05:29:01;;;;;;;3.00;1.90;;;;;;;3.35;100.00;97278.67;3700640;80;44095;-19
2021/01/20 05:34:23;;;;;;;3.10;2.40;;;;;;;3.36;100.00;97275.53;3665784;80;43988;-19
2021/01/20 05:39:29;;;;;;;3.63;2.23;;;;;;;3.28;100.00;97274.92;3682834;80;44516;-18
2021/01/20 05:44:35;;;;;;;3.30;2.30;;;;;;;3.32;100.00;97277.66;3641648;80;43323;-18
2021/01/20 05:49:41;;;;;;;2.60;2.17;;;;;;;3.29;100.00;97281.09;3685127;80;44429;-18
2021/01/20 05:54:47;;;;;;;3.03;2.40;;;;;;;3.24;100.00;97292.14;3697624;79;44043;-18
2021/01/20 05:59:53;;;;;;;3.87;2.10;;;;;;;3.19;100.00;97294.41;3685220;80;43365;-19
2021/01/20 06:05:00;;;;;;;2.93;2.30;;;;;;;3.19;100.00;97288.59;3670187;80;43628;-19
2021/01/20 06:10:07;;;;;;;3.40;2.40;;;;;;;3.17;100.00;97294.57;3670215;80;43472;-18
2021/01/20 06:15:14;;;;;;;2.73;2.03;;;;;;;3.23;100.00;97287.83;3638737;81;44763;-19
2021/01/20 06:20:23;;;;;;;3.00;2.20;;;;;;;3.25;100.00;97276.53;3655630;80;43408;-18
2021/01/20 06:25:32;;;;;;;2.83;2.10;;;;;;;3.26;100.00;97284.86;3657729;80;43682;-18
2021/01/20 06:30:42;;;;;;;3.80;2.37;;;;;;;3.24;100.00;97284.16;3677128;79;43690;-18
2021/01/20 06:35:49;;;;;;;2.63;1.90;;;;;;;3.25;100.00;97273.86;3620647;81;43310;-17
2021/01/20 06:40:56;;;;;;;2.17;1.67;;;;;;;3.25;100.00;97271.20;3642159;81;43468;-17
2021/01/20 06:46:28;;;;;;;3.40;1.50;;;;;;;3.29;100.00;97261.95;3613903;81;44481;-17
2021/01/20 06:51:35;;;;;;;3.13;2.33;;;;;;;3.30;100.00;97268.97;3602248;81;43325;-17
2021/01/20 06:56:46;;;;;;;3.63;2.17;;;;;;;3.28;100.00;97269.59;3608825;81;43726;-17
2021/01/20 07:02:29;;;;;;;3.10;2.17;;;;;;;3.39;100.00;97268.09;3662229;79;43445;-17
2021/01/20 07:08:11;;;;;;;3.27;2.10;;;;;;;3.28;100.00;97264.27;3639939;81;43247;-17
2021/01/20 07:13:18;;;;;;;4.33;2.07;;;;;;;3.25;100.00;97256.56;3656126;81;43722;-17
2021/01/20 07:18:26;;;;;;;3.00;2.13;;;;;;;3.27;100.00;97258.59;3628035;81;43378;-17
2021/01/20 07:23:33;;;;;;;2.07;1.80;;;;;;;3.33;100.00;97261.17;3614748;81;44103;-17
2021/01/20 07:28:39;;;;;;;2.93;2.23;;;;;;;3.29;100.00;97256.64;3627734;81;44472;-17
2021/01/20 07:33:53;;;;;;;2.93;1.90;;;;;;;3.23;100.00;97266.03;3646017;79;44060;-18
2021/01/20 07:38:59;;;;;;;2.80;1.90;;;;;;;3.20;100.00;97269.48;3659940;81;44027;-18
2021/01/20 07:44:09;;;;;;;2.57;2.00;;;;;;;3.30;100.00;97260.98;3628121;81;43428;-18
2021/01/20 07:49:17;;;;;;;2.97;1.90;;;;;;;3.27;100.00;97253.78;3633436;81;43150;-18
2021/01/20 07:54:24;;;;;;;2.67;1.60;;;;;;;3.26;100.00;97264.91;3616802;81;43994;-18
2021/01/20 07:59:32;;;;;;;2.63;1.80;;;;;;;3.28;100.00;97264.27;3653642;81;43468;-18
2021/01/20 08:04:39;;;;;;;2.43;1.73;;;;;;;3.25;100.00;97268.55;3677011;79;44027;-18
2021/01/20 08:09:47;;;;;;;2.57;1.70;;;;;;;3.37;100.00;97267.39;3661152;79;43039;-17
2021/01/20 08:14:54;;;;;;;2.47;1.97;;;;;;;3.50;100.00;97258.25;3647565;81;43085;-18
2021/01/20 08:20:00;;;;;;;2.57;1.83;;;;;;;3.51;100.00;97257.27;3640797;81;44022;-18
2021/01/20 08:25:10;;;;;;;2.23;1.60;;;;;;;3.50;100.00;97265.76;3605548;82;44097;-18
2021/01/20 08:30:32;;;;;;;2.30;1.70;;;;;;;3.58;100.00;97274.84;3623024;81;43770;-18
2021/01/20 08:35:40;;;;;;;4.17;1.97;;;;;;;3.67;100.00;97276.62;3672648;79;44570;-17
2021/01/20 08:40:46;;;;;;;2.77;1.87;;;;;;;3.79;100.00;97289.27;3681302;79;43318;-18
2021/01/20 08:45:52;;;;;;;2.27;1.70;;;;;;;3.84;100.00;97295.84;3644933;80;44062;-18
2021/01/20 08:50:58;;;;;;;2.33;1.67;;;;;;;3.90;100.00;97296.22;3679440;80;44077;-17
2021/01/20 08:56:05;;;;;;;3.30;2.13;;;;;;;3.88;100.00;97303.05;3675620;80;43689;-17
2021/01/20 09:01:24;;;;;;;3.73;2.10;;;;;;;3.94;100.00;97291.78;3693029;80;43489;-18
2021/01/20 09:06:30;;;;;;;2.77;2.00;;;;;;;4.24;100.00;97295.16;3703028;80;44023;-17
2021/01/20 09:11:40;;;;;;;2.70;1.93;;;;;;;4.26;100.00;97287.85;3696686;79;43246;-18
2021/01/20 09:16:46;;;;;;;2.83;2.20;;;;;;;4.28;100.00;97293.02;3645692;80;43731;-19
2021/01/20 09:21:53;;;;;;;3.33;2.10;;;;;;;4.39;100.00;97295.98;3668511;80;43731;-19
2021/01/20 09:26:58;;;;;;;3.83;1.90;;;;;;;4.57;100.00;97292.84;3698399;80;44731;-19
2021/01/20 09:32:06;;;;;;;2.60;1.80;;;;;;;4.80;100.00;97300.90;3699490;80;43432;-19
2021/01/20 09:37:12;;;;;;;2.57;1.80;;;;;;;4.87;100.00;97291.28;3649678;80;43452;-19
2021/01/20 09:42:18;;;;;;;3.70;2.00;;;;;;;4.95;100.00;97295.34;3722297;79;44472;-18
2021/01/20 09:47:24;;;;;;;2.97;2.03;;;;;;;5.13;97.32;97285.98;3661304;80;43409;-18
2021/01/20 09:52:31;;;;;;;2.90;2.13;;;;;;;5.21;100.00;97283.40;3689569;80;43699;-17
2021/01/20 09:57:37;;;;;;;2.97;1.90;;;;;;;5.27;100.00;97276.59;3698934;80;44097;-18
2021/01/20 10:02:44;;;;;;;2.83;2.10;;;;;;;5.35;100.00;97280.65;3701680;80;44040;-18
2021/01/20 10:07:50;;;;;;;3.07;1.93;;;;;;;5.37;99.58;97274.66;3693181;80;44153;-18
2021/01/20 10:12:56;;;;;;;6.07;2.03;;;;;;;5.31;93.61;97270.44;3702643;79;44059;-18
2021/01/20 10:18:02;;;;;;;2.73;2.07;;;;;;;5.32;97.90;97276.12;3669452;80;43694;-17
2021/01/20 10:23:10;;;;;;;3.30;2.10;;;;;;;5.31;94.05;97262.43;3671228;80;44084;-18
2021/01/20 10:28:16;;;;;;;3.03;1.80;;;;;;;5.29;88.89;97266.60;3687455;80;43359;-18
2021/01/20 10:33:21;;;;;;;2.97;1.90;;;;;;;5.37;90.38;97257.78;3671532;80;44082;-18
2021/01/20 10:38:27;;;;;;;2.77;1.80;;;;;;;5.45;87.94;97268.53;3677832;80;44094;-18
2021/01/20 10:43:33;;;;;;;3.00;1.70;;;;;;;5.44;83.16;97257.99;3665839;79;43682;-18
2021/01/20 10:48:39;;;;;;;2.70;1.87;;;;;;;5.59;89.78;97251.08;3711561;79;43345;-17
2021/01/20 10:53:45;;;;;;;3.00;1.70;;;;;;;5.69;86.64;97249.64;3648730;80;43710;-18
2021/01/20 10:58:51;;;;;;;2.73;2.03;;;;;;;5.76;86.31;97245.31;3699451;80;44027;-18
2021/01/20 11:03:56;;;;;;;2.97;1.90;;;;;;;5.91;90.12;97236.70;3683512;80;44504;-18
2021/01/20 11:09:03;;;;;;;2.90;1.70;;;;;;;5.98;86.37;97247.93;3687300;80;43684;-18
2021/01/20 11:14:09;;;;;;;2.80;1.90;;;;;;;6.11;81.80;97234.64;3702720;80;42895;-18
2021/01/20 11:19:14;;;;;;;2.93;1.43;;;;;;;6.35;87.11;97224.49;3686833;79;43006;-18
2021/01/20 11:24:22;;;;;;;2.00;1.40;;;;;;;6.32;82.31;97214.11;3702403;80;44086;-18
2021/01/20 11:29:27;;;;;;;2.10;1.43;;;;;;;6.45;78.38;97215.81;3686747;80;44134;-18
2021/01/20 11:34:33;;;;;;;2.20;1.30;;;;;;;6.66;83.46;97211.81;3702440;80;44095;-18
2021/01/20 11:39:41;;;;;;;2.73;1.50;;;;;;;6.70;77.83;97202.97;3698882;80;44454;-18
2021/01/20 11:44:47;;;;;;;2.20;1.80;;;;;;;6.85;77.36;97185.22;3699018;80;43705;-18
2021/01/20 11:49:54;;;;;;;2.10;1.53;;;;;;;6.97;79.14;97183.05;3694467;79;43674;-18
2021/01/20 11:54:59;;;;;;;2.50;1.40;;;;;;;7.05;80.81;97182.20;3665374;80;43722;-18
2021/01/20 12:00:08;;;;;;;2.43;1.90;;;;;;;6.98;81.10;97187.41;3664877;80;44562;-18
2021/01/20 12:05:18;;;;;;;1.73;1.53;;;;;;;7.02;77.96;97165.95;3644200;81;43689;-18
2021/01/20 12:10:26;;;;;;;3.03;1.50;;;;;;;7.05;79.58;97156.25;3687309;80;42886;-18
2021/01/20 12:15:32;;;;;;;2.90;1.60;;;;;;;7.11;80.52;97148.55;3700712;80;43397;-18
2021/01/20 12:20:39;;;;;;;2.43;1.47;;;;;;;7.06;80.00;97148.55;3655362;79;44249;-18
2021/01/20 12:25:45;;;;;;;1.93;1.50;;;;;;;6.88;79.83;97146.59;3687646;80;43069;-19
2021/01/20 12:30:51;;;;;;;2.20;1.60;;;;;;;6.70;77.41;97134.21;3702716;80;43725;-18
2021/01/20 12:35:57;;;;;;;2.53;1.40;;;;;;;6.72;79.49;97113.96;3698321;80;43370;-18
2021/01/20 12:41:04;;;;;;;4.83;1.70;;;;;;;6.63;76.99;97110.48;3683853;80;44048;-19
2021/01/20 12:46:11;;;;;;;2.37;1.50;;;;;;;6.65;82.20;97108.96;3681171;80;44050;-19
2021/01/20 12:51:17;;;;;;;2.77;1.67;;;;;;;6.63;83.83;97098.44;3701083;80;44770;-19
2021/01/20 12:56:23;;;;;;;2.40;1.90;;;;;;;6.63;83.67;97099.77;3748824;79;44528;-19
2021/01/20 13:01:28;;;;;;;2.23;1.60;;;;;;;6.52;80.65;97090.75;3670597;80;44045;-19
2021/01/20 13:06:34;;;;;;;2.20;1.53;;;;;;;6.49;84.56;97090.56;3669484;80;43322;-19
2021/01/20 13:11:44;;;;;;;2.40;1.70;;;;;;;6.44;83.69;97094.27;3697829;80;43731;-19
2021/01/20 13:16:50;;;;;;;2.33;1.70;;;;;;;6.48;82.88;97079.53;3689370;80;43469;-19
2021/01/20 13:21:56;;;;;;;2.03;1.60;;;;;;;6.53;81.13;97073.67;3641259;80;44150;-19
2021/01/20 13:27:02;;;;;;;2.63;1.60;;;;;;;6.54;82.19;97069.99;3700339;79;44083;-19
2021/01/20 13:32:09;;;;;;;2.53;1.60;;;;;;;6.58;80.13;97072.19;3703026;80;43395;-19
2021/01/20 13:37:16;;;;;;;2.67;1.83;;;;;;;6.63;82.80;97070.34;3682061;80;43567;-19
2021/01/20 13:42:22;;;;;;;2.67;1.90;;;;;;;6.62;79.16;97079.37;3672182;80;43682;-19
2021/01/20 13:47:28;;;;;;;3.70;2.10;;;;;;;6.64;81.67;97076.03;3701026;80;43305;-19
2021/01/20 13:52:34;;;;;;;2.90;1.90;;;;;;;6.63;79.50;97070.34;3701618;80;44142;-19
2021/01/20 13:57:40;;;;;;;2.80;1.77;;;;;;;6.72;84.16;97063.11;3671451;79;43398;-19
2021/01/20 14:02:46;;;;;;;2.47;1.87;;;;;;;6.75;82.24;97062.77;3700023;80;43335;-19
2021/01/20 14:07:52;;;;;;;2.97;2.00;;;;;;;6.80;85.34;97055.08;3708515;80;43378;-19
2021/01/20 14:12:57;;;;;;;3.57;2.00;;;;;;;6.79;82.62;97049.39;3693353;80;44547;-19
2021/01/20 14:18:04;;;;;;;3.83;1.87;;;;;;;6.80;81.76;97048.39;3681308;80;43337;-17
2021/01/20 14:23:10;;;;;;;2.60;1.90;;;;;;;6.76;82.67;97037.16;3641129;81;43688;-18
2021/01/20 14:28:16;;;;;;;4.80;2.10;;;;;;;6.74;80.11;97029.84;3676922;80;44075;-18
2021/01/20 14:33:23;;;;;;;3.40;1.93;;;;;;;6.83;83.79;97033.30;3710297;79;44903;-18
2021/01/20 14:38:29;;;;;;;4.00;2.00;;;;;;;6.82;85.49;97038.32;3661823;80;43349;-18
2021/01/20 14:43:35;;;;;;;3.93;2.10;;;;;;;6.81;81.32;97042.03;3625171;81;43509;-18
2021/01/20 14:48:41;;;;;;;4.07;2.27;;;;;;;6.71;85.97;97039.53;3610054;81;513183;-18
2021/01/20 14:53:47;;;;;;;2.13;1.60;;;;;;;6.71;85.97;97039.53;3610047;81;43737;-18
2021/01/20 14:58:52;;;;;;;2.60;1.90;;;;;;;6.69;85.31;97041.55;3641201;81;44115;-26
2021/01/20 15:03:58;;;;;;;2.03;1.70;;;;;;;6.57;81.49;97030.38;3652082;80;44775;-31
2021/01/20 15:09:05;;;;;;;3.23;1.90;;;;;;;6.54;88.75;97025.84;3621233;81;44071;-19
2021/01/20 15:14:11;;;;;;;3.13;2.00;;;;;;;6.54;83.36;97024.51;3613009;81;42944;-19
2021/01/20 15:19:16;;;;;;;2.40;1.83;;;;;;;6.54;84.38;97029.37;3651620;81;43421;-19
2021/01/20 15:24:22;;;;;;;4.37;2.17;;;;;;;6.50;82.84;97029.89;3626259;81;43690;-18
2021/01/20 15:29:28;;;;;;;4.47;2.27;;;;;;;6.52;83.89;97031.89;3637361;81;43409;-17
2021/01/20 15:34:34;;;;;;;4.67;2.13;;;;;;;6.48;88.00;97038.91;3671717;80;44201;-19
2021/01/20 15:39:40;;;;;;;3.00;1.90;;;;;;;6.39;84.58;97029.23;3675328;80;44118;-19
2021/01/20 15:44:46;;;;;;;3.53;2.00;;;;;;;6.42;85.18;97022.19;3672658;80;44074;-19
2021/01/20 15:49:52;;;;;;;3.40;2.10;;;;;;;6.47;86.27;97026.54;3700681;79;308905;-19
2021/01/20 15:54:59;;;;;;;3.37;2.23;;;;;;;6.32;84.62;97020.20;3706258;80;43434;-19
2021/01/20 16:00:07;;;;;;;3.60;1.80;;;;;;;6.38;86.70;97025.38;3697901;80;44122;-19
2021/01/20 16:05:17;;;;;;;6.73;2.40;;;;;;;6.39;85.90;97023.89;3682434;79;44059;-19
2021/01/20 16:10:23;;;;;;;3.53;2.20;;;;;;;6.33;85.22;97025.88;3706532;79;44097;-20
2021/01/20 16:15:28;;;;;;;3.03;2.00;;;;;;;6.34;85.60;97028.89;3690890;80;44005;-20
2021/01/20 16:20:34;;;;;;;2.63;1.80;;;;;;;6.36;88.21;97020.20;3695680;80;43470;-19
2021/01/20 16:25:42;;;;;;;3.70;1.93;;;;;;;6.38;85.13;97020.87;3693038;80;44225;-20
2021/01/20 16:30:49;;;;;;;3.13;1.90;;;;;;;6.36;88.79;97018.87;3679107;80;43677;-19
2021/01/20 16:35:56;;;;;;;3.87;2.47;;;;;;;6.32;83.79;97012.17;3683148;79;43464;-19
2021/01/20 16:41:02;;;;;;;2.33;1.90;;;;;;;6.33;89.72;97009.84;3594299;81;43735;-20
2021/01/20 16:46:10;;;;;;;3.27;2.10;;;;;;;6.28;88.65;97017.03;3636077;81;43329;-19
2021/01/20 16:51:19;;;;;;;2.77;1.87;;;;;;;6.26;88.72;97013.69;3645373;81;44067;-19
2021/01/20 16:56:25;;;;;;;4.17;2.13;;;;;;;6.34;84.07;97015.52;3653694;81;43368;-18
2021/01/20 17:01:32;;;;;;;133.27;53.00;;;;;;;6.36;88.19;97002.81;3636437;81;44062;-21
2021/01/20 17:06:38;;;;;;;28.10;14.37;;;;;;;6.36;86.97;97006.83;3633950;80;43693;-19
2021/01/20 17:11:43;;;;;;;3.23;2.07;;;;;;;6.32;89.06;97000.14;3634233;80;44179;-20
2021/01/20 17:16:49;;;;;;;2.50;2.00;;;;;;;6.21;89.66;96994.66;3632254;81;44132;-19
2021/01/20 17:21:55;;;;;;;2.40;1.70;;;;;;;6.16;87.22;96992.49;3648193;81;43981;-19
2021/01/20 17:27:02;;;;;;;2.50;1.50;;;;;;;6.14;90.86;97006.53;3653335;81;44086;-19
2021/01/20 17:32:08;;;;;;;8.83;5.37;;;;;;;6.04;90.77;97001.00;3653738;81;43317;-19
2021/01/20 17:37:14;;;;;;;5.23;2.30;;;;;;;6.12;89.73;97000.99;3652885;81;44058;-19
2021/01/20 17:42:20;;;;;;;2.63;1.90;;;;;;;6.08;89.72;96996.48;3678046;79;43405;-19
2021/01/20 17:47:26;;;;;;;2.20;1.80;;;;;;;6.06;91.00;97005.69;3697423;79;44192;-19
2021/01/20 17:52:33;;;;;;;2.87;1.73;;;;;;;5.96;93.30;97000.47;3682258;80;44056;-19
2021/01/20 17:57:38;;;;;;;2.67;1.63;;;;;;;5.90;94.32;96999.30;3679691;80;43406;-19
2021/01/20 18:02:44;;;;;;;2.77;1.80;;;;;;;5.75;95.48;97004.47;3668383;80;44099;-19
2021/01/20 18:07:50;;;;;;;2.73;2.10;;;;;;;5.55;94.64;97004.80;3677649;80;43702;-17
2021/01/20 18:12:57;;;;;;;2.27;1.60;;;;;;;5.52;95.10;97013.13;3680591;80;43088;-17
2021/01/20 18:18:03;;;;;;;3.57;2.27;;;;;;;5.55;96.70;97007.95;3689944;79;44149;-17
2021/01/20 18:23:10;;;;;;;3.10;1.87;;;;;;;5.58;94.42;97025.51;3682026;80;43411;-18
2021/01/20 18:28:17;;;;;;;3.00;1.90;;;;;;;5.55;96.13;97019.48;3667278;80;43387;-18
2021/01/20 18:33:22;;;;;;;2.63;2.10;;;;;;;5.53;96.80;97020.14;3682415;80;43995;-18
2021/01/20 18:38:29;;;;;;;4.33;3.33;;;;;;;5.48;96.53;97021.13;3655924;80;44062;-17
2021/01/20 18:43:34;;;;;;;4.93;4.17;;;;;;;5.48;95.40;97029.14;3688804;80;43417;-18
2021/01/20 18:48:40;;;;;;;4.90;3.33;;;;;;;5.46;92.82;97021.81;3712924;78;44394;-18
2021/01/20 18:53:48;;;;;;;2.20;2.00;;;;;;;5.48;95.21;97014.45;3694262;80;43697;-18
2021/01/20 18:58:55;;;;;;;3.30;1.80;;;;;;;5.50;95.12;97012.45;3665501;80;43317;-18
2021/01/20 19:04:01;;;;;;;3.33;1.97;;;;;;;5.55;94.38;97014.63;3650401;81;43001;-18
2021/01/20 19:09:10;;;;;;;3.93;2.20;;;;;;;5.53;88.40;97000.11;3689790;80;43718;-18
2021/01/20 19:14:16;;;;;;;2.73;1.93;;;;;;;5.53;94.20;96997.92;3711013;80;43368;-17
2021/01/20 19:19:22;;;;;;;2.60;1.80;;;;;;;5.47;94.55;96984.73;3674115;78;43127;-17
2021/01/20 19:24:28;;;;;;;4.37;2.23;;;;;;;5.44;92.53;96968.20;3710801;80;43385;-18
2021/01/20 19:29:36;;;;;;;3.27;1.93;;;;;;;5.46;92.45;96955.04;3685547;80;43673;-18
2021/01/20 19:34:42;;;;;;;3.77;1.70;;;;;;;5.47;92.50;96950.00;3695947;80;43657;-18
2021/01/20 19:39:48;;;;;;;2.17;1.60;;;;;;;5.45;92.62;96934.67;3678225;80;43471;-19
2021/01/20 19:44:54;;;;;;;2.30;1.70;;;;;;;5.53;90.07;96931.14;3664211;80;43337;-19
2021/01/20 19:50:01;;;;;;;1.97;1.40;;;;;;;5.59;84.49;96928.31;3657404;79;44556;-19
2021/01/20 19:55:08;;;;;;;2.30;1.57;;;;;;;5.82;86.72;96926.63;3564703;82;44054;-20
2021/01/20 20:00:18;;;;;;;3.67;2.00;;;;;;;5.90;87.38;96943.17;3684369;80;44007;-20
2021/01/20 20:05:24;;;;;;;2.77;1.90;;;;;;;5.95;85.07;96934.16;3671611;80;44245;-20
2021/01/20 20:10:30;;;;;;;3.20;1.90;;;;;;;5.87;86.36;96926.16;3660076;80;44100;-20
2021/01/20 20:15:36;;;;;;;2.57;1.70;;;;;;;5.83;86.29;96916.28;3656964;80;44094;-20
2021/01/20 20:20:44;;;;;;;2.63;1.80;;;;;;;5.81;86.32;96916.13;3658206;80;43381;-20
2021/01/20 20:25:50;;;;;;;2.40;1.80;;;;;;;5.76;84.47;96909.13;3731191;79;43377;-20
2021/01/20 20:30:57;;;;;;;3.07;1.57;;;;;;;5.86;87.65;96911.12;3633647;80;44060;-20
2021/01/20 20:36:05;;;;;;;3.43;1.83;;;;;;;5.92;82.46;96909.09;3684485;80;44036;-20
2021/01/20 20:41:11;;;;;;;2.53;1.60;;;;;;;5.94;81.10;96906.27;3640646;80;44066;-20
2021/01/20 20:46:18;;;;;;;2.70;1.53;;;;;;;5.95;80.12;96922.61;3640982;80;43709;-20
2021/01/20 20:51:24;;;;;;;2.27;1.70;;;;;;;5.95;82.69;96921.28;3678369;80;44016;-20
2021/01/20 20:56:30;;;;;;;3.20;1.90;;;;;;;5.95;78.68;96911.92;3664388;79;43735;-21
2021/01/20 21:01:36;;;;;;;3.30;1.60;;;;;;;5.97;79.40;96905.91;3647675;80;44105;-19
2021/01/20 21:06:43;;;;;;;3.53;1.90;;;;;;;6.01;77.12;96904.09;3661650;80;43216;-20
2021/01/20 21:11:49;;;;;;;2.07;1.60;;;;;;;5.96;79.40;96900.23;3654924;79;44471;-20
2021/01/20 21:16:55;;;;;;;2.97;1.80;;;;;;;5.93;83.34;96899.25;3664518;80;43310;-19
2021/01/20 21:22:02;;;;;;;2.50;1.53;;;;;;;5.75;84.44;96903.45;3668618;80;44071;-19
2021/01/20 21:27:08;;;;;;;1.90;1.53;;;;;;;5.60;86.07;96904.60;3684537;79;43696;-19
2021/01/20 21:32:14;;;;;;;2.50;1.77;;;;;;;5.50;87.79;96911.47;3686452;80;44058;-19
2021/01/20 21:37:22;;;;;;;2.17;1.60;;;;;;;5.39;79.29;96906.80;3670481;80;44043;-19
2021/01/20 21:42:30;;;;;;;3.43;1.50;;;;;;;5.30;83.61;96909.09;3678763;80;43482;-19
2021/01/20 21:47:35;;;;;;;2.00;1.60;;;;;;;5.27;83.37;96905.92;3685940;80;44023;-19
2021/01/20 21:52:41;;;;;;;2.20;1.37;;;;;;;5.20;86.33;96909.27;3632114;80;43726;-19
2021/01/20 21:57:47;;;;;;;1.67;1.37;;;;;;;5.12;86.71;96899.89;3647369;80;43416;-19
2021/01/20 22:02:53;;;;;;;1.40;1.23;;;;;;;5.00;85.67;96904.73;3738592;79;44235;-19
2021/01/20 22:08:00;;;;;;;2.07;1.43;;;;;;;4.97;82.58;96902.89;3722850;79;44038;-19
2021/01/20 22:13:06;;;;;;;1.63;1.30;;;;;;;5.07;80.97;96899.57;3627563;80;43467;-19
2021/01/20 22:18:12;;;;;;;2.40;1.40;;;;;;;5.09;82.50;96890.91;3670720;80;44054;-19
2021/01/20 22:23:18;;;;;;;1.57;1.40;;;;;;;5.02;84.60;96895.21;3686672;80;44122;-19
2021/01/20 22:28:24;;;;;;;2.40;1.40;;;;;;;5.04;80.36;96894.55;3658689;80;43358;-19
2021/01/20 22:33:31;;;;;;;1.80;1.30;;;;;;;5.05;79.13;96898.89;3680277;79;43484;-19
2021/01/20 22:38:37;;;;;;;2.17;1.53;;;;;;;5.14;77.59;96898.41;3657914;80;44431;-19
2021/01/20 22:43:43;;;;;;;1.60;1.30;;;;;;;5.40;78.55;96887.58;3673836;79;43496;-19
2021/01/20 22:48:48;;;;;;;2.90;1.57;;;;;;;5.50;78.15;96877.56;3637752;80;44124;-19
2021/01/20 22:53:54;;;;;;;2.73;1.57;;;;;;;5.56;72.57;96877.39;3641043;80;43712;-19
2021/01/20 22:59:00;;;;;;;2.30;1.50;;;;;;;5.66;70.98;96878.05;3657041;80;43471;-20
2021/01/20 23:04:07;;;;;;;2.47;1.57;;;;;;;5.73;70.50;96878.22;3659397;79;43698;-20
2021/01/20 23:09:15;;;;;;;2.43;1.60;;;;;;;5.70;77.94;96871.89;3672450;79;43785;-20
2021/01/20 23:14:21;;;;;;;2.67;1.57;;;;;;;5.71;69.59;96858.84;3675068;80;44105;-20
2021/01/20 23:19:27;;;;;;;2.07;1.50;;;;;;;5.76;72.79;96844.48;3656987;80;43670;-19
2021/01/20 23:24:33;;;;;;;2.33;1.60;;;;;;;5.64;73.65;96840.49;3645610;80;44059;-19
2021/01/20 23:29:39;;;;;;;1.90;1.60;;;;;;;5.62;75.47;96827.80;3653771;80;43515;-19
2021/01/20 23:34:45;;;;;;;2.07;1.50;;;;;;;5.55;74.87;96823.15;3633067;80;43502;-19
2021/01/20 23:39:53;;;;;;;2.87;1.40;;;;;;;5.57;70.60;96814.14;3628769;79;43731;-20
2021/01/20 23:44:59;;;;;;;2.60;1.60;;;;;;;5.61;77.78;96803.42;3647944;80;44608;-19
2021/01/20 23:50:06;;;;;;;1.60;1.40;;;;;;;5.58;75.17;96802.45;3696177;79;43605;-19
2021/01/20 23:55:14;;;;;;;2.03;1.37;;;;;;;5.63;75.14;96797.42;3709990;79;43262;-19
